createdAt,value
2019-05-05T00:00:49.221Z,0
2019-05-05T00:03:38.022Z,0
2019-05-05T00:06:28.735Z,0
2019-05-05T00:09:28.914Z,0
2019-05-05T00:13:11.382Z,0
2019-05-05T00:16:17.171Z,0
2019-05-05T00:18:31.034Z,0
2019-05-05T00:21:28.468Z,0
2019-05-05T00:24:28.965Z,0
2019-05-05T00:27:28.563Z,0
2019-05-05T00:30:29.106Z,0
2019-05-05T00:33:30.356Z,0
2019-05-05T00:36:29.182Z,0
2019-05-05T00:39:28.905Z,0
2019-05-05T00:42:28.714Z,0
2019-05-05T00:45:29.453Z,0
2019-05-05T00:48:35.364Z,0
2019-05-05T00:51:34.812Z,0
2019-05-05T00:54:28.493Z,0
2019-05-05T00:57:28.280Z,0
2019-05-05T01:00:45.954Z,0
2019-05-05T01:03:30.132Z,0
2019-05-05T01:06:30.604Z,0
2019-05-05T01:09:34.526Z,0
2019-05-05T01:12:29.511Z,0
2019-05-05T01:15:29.255Z,0
2019-05-05T01:18:29.163Z,0
2019-05-05T01:21:34.909Z,0
2019-05-05T01:24:34.282Z,0
2019-05-05T01:27:34.796Z,0
2019-05-05T01:30:32.495Z,0
2019-05-05T01:33:37.526Z,0
2019-05-05T01:36:28.164Z,0
2019-05-05T01:39:45.239Z,0
2019-05-05T01:42:28.983Z,0
2019-05-05T01:45:28.833Z,0
2019-05-05T01:48:29.391Z,0
2019-05-05T01:51:29.260Z,0
2019-05-05T01:54:28.730Z,0
2019-05-05T01:57:28.618Z,0
2019-05-05T02:00:29.073Z,0
2019-05-05T02:03:28.645Z,0
2019-05-05T02:06:28.191Z,0
2019-05-05T02:09:29.222Z,0
2019-05-05T02:12:29.818Z,0
2019-05-05T02:15:28.638Z,0
2019-05-05T02:18:28.276Z,0
2019-05-05T02:21:29.022Z,0
2019-05-05T02:24:28.796Z,0
2019-05-05T02:27:28.564Z,0
2019-05-05T02:30:37.692Z,0
2019-05-05T02:33:28.964Z,0
2019-05-05T02:36:35.478Z,0
2019-05-05T02:39:38.061Z,0
2019-05-05T02:42:29.680Z,0
2019-05-05T02:45:49.394Z,0
2019-05-05T02:48:31.519Z,0
2019-05-05T02:51:31.282Z,0
2019-05-05T02:57:29.778Z,0
2019-05-05T03:01:16.914Z,0
2019-05-05T03:03:28.868Z,0
2019-05-05T03:06:28.759Z,0
2019-05-05T03:12:34.643Z,0
2019-05-05T03:15:55.017Z,0
2019-05-05T03:18:29.325Z,0
2019-05-05T03:21:27.652Z,0
2019-05-05T03:24:29.479Z,0
2019-05-05T03:27:29.010Z,0
2019-05-05T03:30:28.928Z,0
2019-05-05T03:33:29.398Z,0
2019-05-05T03:36:29.092Z,0
2019-05-05T03:39:28.163Z,0
2019-05-05T03:42:44.324Z,0
2019-05-05T03:45:36.920Z,0
2019-05-05T03:48:28.903Z,1
2019-05-05T03:51:34.691Z,1
2019-05-05T03:54:29.611Z,2
2019-05-05T03:57:28.567Z,3
2019-05-05T04:01:36.738Z,4
2019-05-05T04:03:28.747Z,4
2019-05-05T04:06:44.654Z,0
2019-05-05T04:12:29.586Z,7
2019-05-05T04:15:28.979Z,0
2019-05-05T04:18:31.636Z,0
2019-05-05T04:21:33.475Z,12
2019-05-05T04:24:34.177Z,14
2019-05-05T04:27:28.348Z,15
2019-05-05T04:30:29.049Z,17
2019-05-05T04:33:34.194Z,8
2019-05-05T04:36:29.091Z,10
2019-05-05T04:42:30.512Z,14
2019-05-05T04:45:28.301Z,29
2019-05-05T04:48:43.894Z,25
2019-05-05T04:51:46.232Z,30
2019-05-05T04:54:35.238Z,36
2019-05-05T04:57:28.796Z,54
2019-05-05T05:00:28.930Z,50
2019-05-05T05:03:55.884Z,60
2019-05-05T05:06:35.017Z,93
2019-05-05T05:09:28.321Z,138
2019-05-05T05:12:30.320Z,166
2019-05-05T05:15:29.039Z,210
2019-05-05T05:18:29.010Z,189
2019-05-05T05:21:34.242Z,218
2019-05-05T05:24:30.763Z,252
2019-05-05T05:27:28.542Z,278
2019-05-05T05:30:29.254Z,294
2019-05-05T05:33:30.129Z,307
2019-05-05T05:36:29.145Z,276
2019-05-05T05:39:41.395Z,304
2019-05-05T05:42:28.824Z,380
2019-05-05T05:45:39.090Z,373
2019-05-05T05:48:34.414Z,324
2019-05-05T05:51:34.146Z,285
2019-05-05T05:54:29.246Z,177
2019-05-05T05:57:29.109Z,267
2019-05-05T06:03:28.561Z,288
2019-05-05T06:06:28.152Z,141
2019-05-05T06:12:28.957Z,144
2019-05-05T06:15:29.923Z,28
2019-05-05T06:18:28.810Z,8
2019-05-05T06:21:28.613Z,145
2019-05-05T06:24:28.427Z,225
2019-05-05T06:27:29.220Z,324
2019-05-05T06:30:29.067Z,0
2019-05-05T06:33:29.704Z,0
2019-05-05T06:36:28.201Z,0
2019-05-05T06:39:28.881Z,0
2019-05-05T06:44:41.647Z,134
2019-05-05T06:45:35.658Z,132
2019-05-05T06:48:28.343Z,62
2019-05-05T06:51:34.272Z,0
2019-05-05T06:54:28.995Z,0
2019-05-05T06:57:28.549Z,0
2019-05-05T07:00:29.268Z,0
2019-05-05T07:03:29.117Z,0
2019-05-05T07:06:29.658Z,0
2019-05-05T07:09:28.539Z,0
2019-05-05T07:12:28.238Z,0
2019-05-05T07:15:28.862Z,0
2019-05-05T07:18:28.819Z,0
2019-05-05T07:21:28.505Z,0
2019-05-05T07:24:29.279Z,0
2019-05-05T07:27:28.969Z,0
2019-05-05T07:30:33.790Z,0
2019-05-05T07:33:28.583Z,417
2019-05-05T07:36:40.490Z,0
2019-05-05T07:39:29.275Z,139
2019-05-05T07:42:29.222Z,239
2019-05-05T07:45:36.594Z,303
2019-05-05T07:48:28.350Z,259
2019-05-05T07:51:29.157Z,189
2019-05-05T07:54:34.444Z,167
2019-05-05T07:57:29.139Z,179
2019-05-05T08:00:29.013Z,97
2019-05-05T08:03:28.968Z,77
2019-05-05T08:06:28.688Z,93
2019-05-05T08:09:28.422Z,87
2019-05-05T08:12:29.098Z,104
2019-05-05T08:15:34.338Z,80
2019-05-05T08:19:04.278Z,135
2019-05-05T08:21:29.331Z,128
2019-05-05T08:28:31.456Z,159
2019-05-05T08:30:35.333Z,139
2019-05-05T08:33:28.988Z,104
2019-05-05T08:36:29.248Z,125
2019-05-05T08:39:29.268Z,171
2019-05-05T08:42:29.202Z,221
2019-05-05T08:45:28.916Z,284
2019-05-05T08:48:28.314Z,357
2019-05-05T08:51:29.110Z,469
2019-05-05T08:54:30.131Z,183
2019-05-05T08:57:29.318Z,280
2019-05-05T09:00:29.471Z,196
2019-05-05T09:03:27.968Z,154
2019-05-05T09:06:28.955Z,121
2019-05-05T09:09:28.845Z,423
2019-05-05T09:12:28.868Z,480
2019-05-05T09:15:29.029Z,60
2019-05-05T09:18:28.413Z,237
2019-05-05T09:21:29.247Z,416
2019-05-05T09:24:36.492Z,410
2019-05-05T09:28:06.155Z,167
2019-05-05T09:30:37.702Z,124
2019-05-05T09:33:33.754Z,567
2019-05-05T09:36:29.390Z,0
2019-05-05T09:39:29.524Z,239
2019-05-05T09:42:28.503Z,200
2019-05-05T09:45:28.358Z,279
2019-05-05T09:48:29.535Z,249
2019-05-05T09:51:29.194Z,560
2019-05-05T09:54:30.835Z,402
2019-05-05T09:57:29.235Z,492
2019-05-05T10:00:29.536Z,386
2019-05-05T10:03:29.454Z,269
2019-05-05T10:06:29.532Z,265
2019-05-05T10:09:28.426Z,182
2019-05-05T10:12:29.501Z,347
2019-05-05T10:15:28.417Z,260
2019-05-05T10:18:28.410Z,165
2019-05-05T10:21:31.265Z,133
2019-05-05T10:24:50.971Z,212
2019-05-05T10:27:43.985Z,183
2019-05-05T10:30:28.738Z,228
2019-05-05T10:33:28.785Z,259
2019-05-05T10:36:29.054Z,211
2019-05-05T10:39:35.597Z,129
2019-05-05T10:42:54.017Z,120
2019-05-05T10:45:29.247Z,270
2019-05-05T10:48:29.159Z,289
2019-05-05T10:51:29.186Z,276
2019-05-05T10:54:40.663Z,246
2019-05-05T10:57:31.773Z,264
2019-05-05T11:00:54.503Z,496
2019-05-05T11:03:28.681Z,379
2019-05-05T11:06:28.447Z,282
2019-05-05T11:09:29.932Z,81
2019-05-05T11:12:28.650Z,528
2019-05-05T11:15:28.442Z,152
2019-05-05T11:18:29.588Z,93
2019-05-05T11:21:29.178Z,86
2019-05-05T11:24:29.226Z,100
2019-05-05T11:27:29.103Z,114
2019-05-05T11:30:37.487Z,173
2019-05-05T11:33:39.328Z,237
2019-05-05T11:36:50.109Z,205
2019-05-05T11:39:29.026Z,175
2019-05-05T11:42:29.521Z,146
2019-05-05T11:45:29.281Z,187
2019-05-05T11:48:29.329Z,243
2019-05-05T11:51:34.303Z,204
2019-05-05T11:54:29.178Z,192
2019-05-05T11:57:29.225Z,241
2019-05-05T12:00:29.310Z,273
2019-05-05T12:03:29.388Z,209
2019-05-05T12:06:28.815Z,203
2019-05-05T12:09:37.303Z,161
2019-05-05T12:12:29.294Z,170
2019-05-05T12:15:29.900Z,164
2019-05-05T12:18:29.629Z,171
2019-05-05T12:21:28.985Z,179
2019-05-05T12:24:33.890Z,202
2019-05-05T12:27:36.852Z,263
2019-05-05T12:30:28.866Z,205
2019-05-05T12:33:28.815Z,132
2019-05-05T12:36:29.002Z,175
2019-05-05T12:39:28.739Z,208
2019-05-05T12:42:28.838Z,221
2019-05-05T12:45:34.488Z,197
2019-05-05T12:48:34.478Z,250
2019-05-05T12:51:28.668Z,234
2019-05-05T12:54:28.611Z,224
2019-05-05T12:57:28.436Z,157
2019-05-05T13:00:29.261Z,176
2019-05-05T13:03:29.399Z,169
2019-05-05T13:09:29.455Z,160
2019-05-05T13:12:29.366Z,135
2019-05-05T13:15:29.349Z,160
2019-05-05T13:18:28.781Z,172
2019-05-05T13:21:48.879Z,129
2019-05-05T13:24:50.125Z,106
2019-05-05T13:27:36.680Z,85
2019-05-05T13:30:28.572Z,88
2019-05-05T13:33:28.439Z,88
2019-05-05T13:36:29.385Z,102
2019-05-05T13:39:29.256Z,123
2019-05-05T13:42:28.736Z,146
2019-05-05T13:45:39.399Z,148
2019-05-05T13:48:29.417Z,122
2019-05-05T13:51:28.441Z,84
2019-05-05T13:54:28.537Z,75
2019-05-05T13:57:28.549Z,54
2019-05-05T14:00:28.612Z,73
2019-05-05T14:03:28.806Z,79
2019-05-05T14:06:28.739Z,93
2019-05-05T14:09:28.779Z,114
2019-05-05T14:12:29.763Z,103
2019-05-05T14:15:28.561Z,112
2019-05-05T14:18:28.679Z,123
2019-05-05T14:21:28.471Z,95
2019-05-05T14:24:38.798Z,77
2019-05-05T14:27:28.605Z,47
2019-05-05T14:30:50.749Z,55
2019-05-05T14:33:31.717Z,60
2019-05-05T14:36:36.193Z,56
2019-05-05T14:39:29.099Z,43
2019-05-05T14:42:29.052Z,58
2019-05-05T14:45:28.896Z,76
2019-05-05T14:48:28.827Z,90
2019-05-05T14:51:28.430Z,73
2019-05-05T14:54:29.470Z,90
2019-05-05T14:57:33.625Z,93
2019-05-05T15:00:30.260Z,103
2019-05-05T15:03:28.326Z,95
2019-05-05T15:06:40.168Z,93
2019-05-05T15:09:38.670Z,79
2019-05-05T15:12:34.194Z,74
2019-05-05T15:15:29.423Z,64
2019-05-05T15:18:29.522Z,75
2019-05-05T15:21:29.460Z,87
2019-05-05T15:24:28.389Z,90
2019-05-05T15:27:29.054Z,81
2019-05-05T15:30:28.739Z,59
2019-05-05T15:33:28.408Z,46
2019-05-05T15:36:29.763Z,23
2019-05-05T15:39:29.051Z,19
2019-05-05T15:42:29.088Z,15
2019-05-05T15:45:29.047Z,23
2019-05-05T15:48:28.781Z,23
2019-05-05T15:51:28.478Z,13
2019-05-05T15:54:29.258Z,34
2019-05-05T15:57:33.441Z,40
2019-05-05T16:00:28.729Z,58
2019-05-05T16:03:29.820Z,73
2019-05-05T16:06:29.002Z,89
2019-05-05T16:09:33.735Z,89
2019-05-05T16:12:33.759Z,67
2019-05-05T16:16:34.804Z,55
2019-05-05T16:18:48.673Z,53
2019-05-05T16:21:40.624Z,27
2019-05-05T16:24:30.680Z,26
2019-05-05T16:27:35.268Z,21
2019-05-05T16:30:29.152Z,5
2019-05-05T16:33:28.756Z,4
2019-05-05T16:36:28.408Z,13
2019-05-05T16:39:29.612Z,1
2019-05-05T16:42:30.107Z,10
2019-05-05T16:45:29.870Z,0
2019-05-05T16:48:28.770Z,7
2019-05-05T16:51:34.819Z,8
2019-05-05T16:54:35.780Z,7
2019-05-05T16:57:33.854Z,6
2019-05-05T17:00:28.680Z,6
2019-05-05T17:03:28.286Z,7
2019-05-05T17:06:29.169Z,10
2019-05-05T17:09:28.962Z,13
2019-05-05T17:12:31.442Z,6
2019-05-05T17:15:47.258Z,16
2019-05-05T17:18:36.002Z,16
2019-05-05T17:21:34.130Z,18
2019-05-05T17:24:28.460Z,19
2019-05-05T17:27:29.290Z,6
2019-05-05T17:30:29.179Z,4
2019-05-05T17:33:29.355Z,13
2019-05-05T17:36:28.622Z,0
2019-05-05T17:39:31.236Z,14
2019-05-05T17:44:39.779Z,15
2019-05-05T17:45:59.242Z,15
2019-05-05T17:48:33.530Z,5
2019-05-05T17:51:35.595Z,6
2019-05-05T17:54:33.998Z,20
2019-05-05T17:57:29.179Z,21
2019-05-05T18:00:30.036Z,8
2019-05-05T18:03:35.178Z,5
2019-05-05T18:13:47.608Z,9
2019-05-05T18:16:14.049Z,0
2019-05-05T18:20:16.758Z,0
2019-05-05T18:27:34.728Z,0
2019-05-05T18:30:28.653Z,4
2019-05-05T18:33:28.855Z,4
2019-05-05T18:39:44.882Z,3
2019-05-05T18:43:28.698Z,0
2019-05-05T18:49:17.233Z,0
2019-05-05T18:51:31.510Z,2
2019-05-05T18:54:30.802Z,1
2019-05-05T18:57:28.723Z,0
2019-05-05T19:00:55.695Z,0
2019-05-05T19:03:38.030Z,0
2019-05-05T19:07:07.461Z,0
2019-05-05T19:09:29.224Z,0
2019-05-05T19:12:29.239Z,0
2019-05-05T19:15:29.385Z,0
2019-05-05T19:18:28.843Z,0
2019-05-05T19:21:34.020Z,0
2019-05-05T19:24:29.216Z,0
2019-05-05T19:27:29.269Z,0
2019-05-05T19:30:29.399Z,0
2019-05-05T19:33:29.361Z,0
2019-05-05T19:36:28.697Z,0
2019-05-05T19:39:28.522Z,0
2019-05-05T19:42:35.099Z,0
2019-05-05T19:45:29.383Z,0
2019-05-05T19:48:29.665Z,0
2019-05-05T19:51:28.687Z,0
2019-05-05T19:54:28.760Z,0
2019-05-05T19:57:28.815Z,0
2019-05-05T20:00:29.533Z,0
2019-05-05T20:03:28.786Z,0
2019-05-05T20:06:29.659Z,0
2019-05-05T20:09:28.657Z,0
2019-05-05T20:12:33.574Z,0
2019-05-05T20:15:37.663Z,0
2019-05-05T20:18:28.776Z,0
2019-05-05T20:21:28.804Z,0
2019-05-05T20:24:28.690Z,0
2019-05-05T20:27:28.984Z,0
2019-05-05T20:30:29.005Z,0
2019-05-05T20:33:36.685Z,0
2019-05-05T20:36:29.879Z,0
2019-05-05T20:39:30.993Z,0
2019-05-05T20:42:29.909Z,0
2019-05-05T20:45:31.157Z,0
2019-05-05T20:48:28.072Z,0
2019-05-05T20:54:28.262Z,0
2019-05-05T20:57:29.032Z,0
2019-05-05T21:00:28.777Z,0
2019-05-05T21:03:28.563Z,0
2019-05-05T21:06:28.356Z,0
2019-05-05T21:09:29.523Z,0
2019-05-05T21:12:41.703Z,0
2019-05-05T21:15:28.197Z,0
2019-05-05T21:18:28.371Z,0
2019-05-05T21:21:31.331Z,0
2019-05-05T21:24:29.088Z,0
2019-05-05T21:27:29.081Z,0
2019-05-05T21:30:29.118Z,0
2019-05-05T21:33:28.252Z,0
2019-05-05T21:36:30.184Z,0
2019-05-05T21:39:30.242Z,0
2019-05-05T21:42:28.842Z,0
2019-05-05T21:45:28.733Z,0
2019-05-05T21:48:28.762Z,0
2019-05-05T21:51:40.118Z,0
2019-05-05T21:54:36.620Z,0
2019-05-05T21:57:45.069Z,0
2019-05-05T22:01:17.370Z,0
2019-05-05T22:03:35.459Z,0
2019-05-05T22:06:29.169Z,0
2019-05-05T22:09:34.441Z,0
2019-05-05T22:12:29.480Z,0
2019-05-05T22:15:28.659Z,0
2019-05-05T22:18:28.774Z,0
2019-05-05T22:21:40.905Z,0
2019-05-05T22:24:29.414Z,0
2019-05-05T22:27:29.272Z,0
2019-05-05T22:30:29.329Z,0
2019-05-05T22:33:29.306Z,0
2019-05-05T22:36:28.996Z,0
2019-05-05T22:39:30.356Z,0
2019-05-05T22:42:29.010Z,0
2019-05-05T22:45:28.939Z,0
2019-05-05T22:48:29.070Z,0
2019-05-05T22:51:28.702Z,0
2019-05-05T22:54:28.407Z,0
2019-05-05T22:57:29.096Z,0
2019-05-05T23:00:43.737Z,0
2019-05-05T23:03:36.447Z,0
2019-05-05T23:06:30.031Z,0
2019-05-05T23:09:28.978Z,0
2019-05-05T23:12:28.593Z,0
2019-05-05T23:15:29.990Z,0
2019-05-05T23:18:30.703Z,0
2019-05-05T23:21:37.777Z,0
2019-05-05T23:24:35.870Z,0
2019-05-05T23:28:00.805Z,0
2019-05-05T23:30:39.486Z,0
2019-05-05T23:33:28.676Z,0
2019-05-05T23:36:28.987Z,0
2019-05-05T23:39:28.695Z,0
2019-05-05T23:42:28.533Z,0
2019-05-05T23:45:28.150Z,0
2019-05-05T23:48:29.266Z,0
2019-05-05T23:51:29.012Z,0
2019-05-05T23:54:28.917Z,0
2019-05-05T23:57:28.803Z,0
